sensor_id;sensor_type;location;lat;lon;timestamp;P1;P2;P0
47808;PMS5003;33573;38.790;-77.084;2024-03-02T00:01:56;374;324;
47808;PMS5003;33573;38.790;-77.084;2024-03-02T00:04:22;355;305;
47808;PMS5003;33573;38.790;-77.084;2024-03-02T00:06:47;358;313;
47808;PMS5003;33573;38.790;-77.084;2024-03-02T00:09:12;322;285;
47808;PMS5003;33573;38.790;-77.084;2024-03-02T00:11:38;328;282;
47808;PMS5003;33573;38.790;-77.084;2024-03-02T00:14:03;311;268;
47808;PMS5003;33573;38.790;-77.084;2024-03-02T00:16:30;286;250;
47808;PMS5003;33573;38.790;-77.084;2024-03-02T00:18:54;275;242;
47808;PMS5003;33573;38.790;-77.084;2024-03-02T00:21:19;262;227;
47808;PMS5003;33573;38.790;-77.084;2024-03-02T00:23:45;253;224;
47808;PMS5003;33573;38.790;-77.084;2024-03-02T00:28:36;244;215;
47808;PMS5003;33573;38.790;-77.084;2024-03-02T00:31:02;224;198;
47808;PMS5003;33573;38.790;-77.084;2024-03-02T00:33:27;217;196;
47808;PMS5003;33573;38.790;-77.084;2024-03-02T00:35:52;213;188;
47808;PMS5003;33573;38.790;-77.084;2024-03-02T00:38:17;202;179;
47808;PMS5003;33573;38.790;-77.084;2024-03-02T00:40:43;190;175;
47808;PMS5003;33573;38.790;-77.084;2024-03-02T00:43:10;176;166;
47808;PMS5003;33573;38.790;-77.084;2024-03-02T00:45:33;184;166;
47808;PMS5003;33573;38.790;-77.084;2024-03-02T00:47:59;171;148;
47808;PMS5003;33573;38.790;-77.084;2024-03-02T00:50:24;149;131;
47808;PMS5003;33573;38.790;-77.084;2024-03-02T00:52:50;152;133;
47808;PMS5003;33573;38.790;-77.084;2024-03-02T00:55:16;156;126;
47808;PMS5003;33573;38.790;-77.084;2024-03-02T00:57:41;132;122;
47808;PMS5003;33573;38.790;-77.084;2024-03-02T01:00:07;137;124;
47808;PMS5003;33573;38.790;-77.084;2024-03-02T01:02:32;121;110;
47808;PMS5003;33573;38.790;-77.084;2024-03-02T01:04:57;120;105;
47808;PMS5003;33573;38.790;-77.084;2024-03-02T01:07:22;122;113;
47808;PMS5003;33573;38.790;-77.084;2024-03-02T01:09:47;129;109;
47808;PMS5003;33573;38.790;-77.084;2024-03-02T01:12:13;110;100;
47808;PMS5003;33573;38.790;-77.084;2024-03-02T01:14:39;102;97;
47808;PMS5003;33573;38.790;-77.084;2024-03-02T01:17:04;98;92;
47808;PMS5003;33573;38.790;-77.084;2024-03-02T01:19:29;89;83;
47808;PMS5003;33573;38.790;-77.084;2024-03-02T01:21:54;102;84;
47808;PMS5003;33573;38.790;-77.084;2024-03-02T01:24:20;83;76;
47808;PMS5003;33573;38.790;-77.084;2024-03-02T01:26:45;73;66;
47808;PMS5003;33573;38.790;-77.084;2024-03-02T01:29:11;78;72;
47808;PMS5003;33573;38.790;-77.084;2024-03-02T01:31:37;75;68;
47808;PMS5003;33573;38.790;-77.084;2024-03-02T01:34:03;66;64;
47808;PMS5003;33573;38.790;-77.084;2024-03-02T01:36:28;67;60;
47808;PMS5003;33573;38.790;-77.084;2024-03-02T01:38:54;69;63;
47808;PMS5003;33573;38.790;-77.084;2024-03-02T01:41:19;57;53;
47808;PMS5003;33573;38.790;-77.084;2024-03-02T01:43:45;59;55;
47808;PMS5003;33573;38.790;-77.084;2024-03-02T01:46:10;61;53;
47808;PMS5003;33573;38.790;-77.084;2024-03-02T01:48:36;57;50;
47808;PMS5003;33573;38.790;-77.084;2024-03-02T01:51:02;62;51;
47808;PMS5003;33573;38.790;-77.084;2024-03-02T01:53:27;48;45;
47808;PMS5003;33573;38.790;-77.084;2024-03-02T01:55:52;49;43;
47808;PMS5003;33573;38.790;-77.084;2024-03-02T01:58:18;45;42;
47808;PMS5003;33573;38.790;-77.084;2024-03-02T02:00:43;44;42;
47808;PMS5003;33573;38.790;-77.084;2024-03-02T02:03:08;48;43;
47808;PMS5003;33573;38.790;-77.084;2024-03-02T02:05:34;44;35;
47808;PMS5003;33573;38.790;-77.084;2024-03-02T02:08:00;41;37;
47808;PMS5003;33573;38.790;-77.084;2024-03-02T02:10:25;35;35;
47808;PMS5003;33573;38.790;-77.084;2024-03-02T02:12:51;37;29;
47808;PMS5003;33573;38.790;-77.084;2024-03-02T02:15:22;34;30;
47808;PMS5003;33573;38.790;-77.084;2024-03-02T02:17:41;37;33;
47808;PMS5003;33573;38.790;-77.084;2024-03-02T02:20:07;25;25;
47808;PMS5003;33573;38.790;-77.084;2024-03-02T02:22:32;29;28;
47808;PMS5003;33573;38.790;-77.084;2024-03-02T02:24:58;34;31;
47808;PMS5003;33573;38.790;-77.084;2024-03-02T02:27:23;24;22;
47808;PMS5003;33573;38.790;-77.084;2024-03-02T02:29:48;20;20;
47808;PMS5003;33573;38.790;-77.084;2024-03-02T02:32:14;23;23;
47808;PMS5003;33573;38.790;-77.084;2024-03-02T02:34:39;27;22;
47808;PMS5003;33573;38.790;-77.084;2024-03-02T02:37:05;22;21;
47808;PMS5003;33573;38.790;-77.084;2024-03-02T02:39:30;22;18;
47808;PMS5003;33573;38.790;-77.084;2024-03-02T02:41:55;17;16;
47808;PMS5003;33573;38.790;-77.084;2024-03-02T02:44:21;18;18;
47808;PMS5003;33573;38.790;-77.084;2024-03-02T02:46:46;17;15;
47808;PMS5003;33573;38.790;-77.084;2024-03-02T02:49:11;15;15;
47808;PMS5003;33573;38.790;-77.084;2024-03-02T02:51:37;18;16;
47808;PMS5003;33573;38.790;-77.084;2024-03-02T02:54:03;14;14;
47808;PMS5003;33573;38.790;-77.084;2024-03-02T02:56:28;13;11;
47808;PMS5003;33573;38.790;-77.084;2024-03-02T02:58:54;11;11;
47808;PMS5003;33573;38.790;-77.084;2024-03-02T03:01:19;17;13;
47808;PMS5003;33573;38.790;-77.084;2024-03-02T03:03:45;13;12;
47808;PMS5003;33573;38.790;-77.084;2024-03-02T03:06:10;13;13;
47808;PMS5003;33573;38.790;-77.084;2024-03-02T03:08:36;13;11;
47808;PMS5003;33573;38.790;-77.084;2024-03-02T03:11:01;12;10;
47808;PMS5003;33573;38.790;-77.084;2024-03-02T03:13:27;15;10;
47808;PMS5003;33573;38.790;-77.084;2024-03-02T03:15:52;10;9;
47808;PMS5003;33573;38.790;-77.084;2024-03-02T03:18:18;9;9;
47808;PMS5003;33573;38.790;-77.084;2024-03-02T03:20:43;10;10;
47808;PMS5003;33573;38.790;-77.084;2024-03-02T03:23:09;10;8;
47808;PMS5003;33573;38.790;-77.084;2024-03-02T03:25:34;9;9;
47808;PMS5003;33573;38.790;-77.084;2024-03-02T03:28:00;9;9;
47808;PMS5003;33573;38.790;-77.084;2024-03-02T03:30:25;9;9;
47808;PMS5003;33573;38.790;-77.084;2024-03-02T03:32:50;8;8;
47808;PMS5003;33573;38.790;-77.084;2024-03-02T03:35:16;9;7;
47808;PMS5003;33573;38.790;-77.084;2024-03-02T03:37:41;12;12;
47808;PMS5003;33573;38.790;-77.084;2024-03-02T03:40:07;7;6;
47808;PMS5003;33573;38.790;-77.084;2024-03-02T03:42:32;7;7;
47808;PMS5003;33573;38.790;-77.084;2024-03-02T03:44:58;7;7;
47808;PMS5003;33573;38.790;-77.084;2024-03-02T03:47:23;6;6;
47808;PMS5003;33573;38.790;-77.084;2024-03-02T03:49:49;8;8;
47808;PMS5003;33573;38.790;-77.084;2024-03-02T03:52:14;8;8;
47808;PMS5003;33573;38.790;-77.084;2024-03-02T03:54:39;9;7;
47808;PMS5003;33573;38.790;-77.084;2024-03-02T03:57:05;6;6;
47808;PMS5003;33573;38.790;-77.084;2024-03-02T03:59:30;6;6;
47808;PMS5003;33573;38.790;-77.084;2024-03-02T04:01:56;7;7;
47808;PMS5003;33573;38.790;-77.084;2024-03-02T04:04:21;7;6;
47808;PMS5003;33573;38.790;-77.084;2024-03-02T04:06:47;8;6;
47808;PMS5003;33573;38.790;-77.084;2024-03-02T04:09:12;8;8;
47808;PMS5003;33573;38.790;-77.084;2024-03-02T04:11:38;7;7;
47808;PMS5003;33573;38.790;-77.084;2024-03-02T04:14:03;7;5;
47808;PMS5003;33573;38.790;-77.084;2024-03-02T04:16:29;8;5;
47808;PMS5003;33573;38.790;-77.084;2024-03-02T04:18:54;9;5;
47808;PMS5003;33573;38.790;-77.084;2024-03-02T04:21:20;6;5;
47808;PMS5003;33573;38.790;-77.084;2024-03-02T04:23:45;4;4;
47808;PMS5003;33573;38.790;-77.084;2024-03-02T04:26:10;5;5;
47808;PMS5003;33573;38.790;-77.084;2024-03-02T04:28:36;6;5;
47808;PMS5003;33573;38.790;-77.084;2024-03-02T04:31:02;4;3;
47808;PMS5003;33573;38.790;-77.084;2024-03-02T04:33:27;6;5;
47808;PMS5003;33573;38.790;-77.084;2024-03-02T04:35:52;5;4;
47808;PMS5003;33573;38.790;-77.084;2024-03-02T04:38:18;5;5;
47808;PMS5003;33573;38.790;-77.084;2024-03-02T04:40:43;5;5;
47808;PMS5003;33573;38.790;-77.084;2024-03-02T04:43:09;5;5;
47808;PMS5003;33573;38.790;-77.084;2024-03-02T04:45:34;4;4;
47808;PMS5003;33573;38.790;-77.084;2024-03-02T04:48:00;5;5;
47808;PMS5003;33573;38.790;-77.084;2024-03-02T04:50:25;4;4;
47808;PMS5003;33573;38.790;-77.084;2024-03-02T04:52:51;4;4;
47808;PMS5003;33573;38.790;-77.084;2024-03-02T04:55:16;5;3;
47808;PMS5003;33573;38.790;-77.084;2024-03-02T04:57:42;4;4;
47808;PMS5003;33573;38.790;-77.084;2024-03-02T05:00:08;3;3;
47808;PMS5003;33573;38.790;-77.084;2024-03-02T05:02:33;4;4;
47808;PMS5003;33573;38.790;-77.084;2024-03-02T05:04:58;5;5;
47808;PMS5003;33573;38.790;-77.084;2024-03-02T05:07:24;3;3;
47808;PMS5003;33573;38.790;-77.084;2024-03-02T05:09:49;4;3;
47808;PMS5003;33573;38.790;-77.084;2024-03-02T05:12:14;4;3;
47808;PMS5003;33573;38.790;-77.084;2024-03-02T05:14:40;3;3;
47808;PMS5003;33573;38.790;-77.084;2024-03-02T05:17:05;3;3;
47808;PMS5003;33573;38.790;-77.084;2024-03-02T05:19:31;4;3;
47808;PMS5003;33573;38.790;-77.084;2024-03-02T05:21:57;3;3;
47808;PMS5003;33573;38.790;-77.084;2024-03-02T05:24:22;5;5;
47808;PMS5003;33573;38.790;-77.084;2024-03-02T05:26:47;5;4;
47808;PMS5003;33573;38.790;-77.084;2024-03-02T05:29:13;3;3;
47808;PMS5003;33573;38.790;-77.084;2024-03-02T05:31:38;1;1;
47808;PMS5003;33573;38.790;-77.084;2024-03-02T05:34:04;3;2;
47808;PMS5003;33573;38.790;-77.084;2024-03-02T05:36:29;4;4;
47808;PMS5003;33573;38.790;-77.084;2024-03-02T05:38:55;2;2;
47808;PMS5003;33573;38.790;-77.084;2024-03-02T05:41:20;3;3;
47808;PMS5003;33573;38.790;-77.084;2024-03-02T05:43:46;3;3;
47808;PMS5003;33573;38.790;-77.084;2024-03-02T05:46:11;3;3;
47808;PMS5003;33573;38.790;-77.084;2024-03-02T05:48:37;5;3;
47808;PMS5003;33573;38.790;-77.084;2024-03-02T05:51:02;2;2;
47808;PMS5003;33573;38.790;-77.084;2024-03-02T05:53:28;3;3;
47808;PMS5003;33573;38.790;-77.084;2024-03-02T05:55:53;2;2;
47808;PMS5003;33573;38.790;-77.084;2024-03-02T05:58:19;2;2;
47808;PMS5003;33573;38.790;-77.084;2024-03-02T06:00:44;3;3;
47808;PMS5003;33573;38.790;-77.084;2024-03-02T06:03:10;2;2;
47808;PMS5003;33573;38.790;-77.084;2024-03-02T06:05:35;2;2;
47808;PMS5003;33573;38.790;-77.084;2024-03-02T06:08:01;3;3;
47808;PMS5003;33573;38.790;-77.084;2024-03-02T06:10:26;3;3;
47808;PMS5003;33573;38.790;-77.084;2024-03-02T06:12:51;3;3;
47808;PMS5003;33573;38.790;-77.084;2024-03-02T06:15:17;2;2;
47808;PMS5003;33573;38.790;-77.084;2024-03-02T06:17:42;1;1;
47808;PMS5003;33573;38.790;-77.084;2024-03-02T06:20:08;2;2;
47808;PMS5003;33573;38.790;-77.084;2024-03-02T06:22:33;3;3;
47808;PMS5003;33573;38.790;-77.084;2024-03-02T06:24:59;4;4;
47808;PMS5003;33573;38.790;-77.084;2024-03-02T06:27:24;2;2;
47808;PMS5003;33573;38.790;-77.084;2024-03-02T06:29:50;2;2;
47808;PMS5003;33573;38.790;-77.084;2024-03-02T06:32:15;0;0;
47808;PMS5003;33573;38.790;-77.084;2024-03-02T06:34:41;4;4;
47808;PMS5003;33573;38.790;-77.084;2024-03-02T06:37:06;2;2;
47808;PMS5003;33573;38.790;-77.084;2024-03-02T06:39:32;2;2;
47808;PMS5003;33573;38.790;-77.084;2024-03-02T06:41:57;3;3;
47808;PMS5003;33573;38.790;-77.084;2024-03-02T06:44:22;4;2;
47808;PMS5003;33573;38.790;-77.084;2024-03-02T06:46:48;1;1;
47808;PMS5003;33573;38.790;-77.084;2024-03-02T06:49:13;1;1;
47808;PMS5003;33573;38.790;-77.084;2024-03-02T06:51:39;3;2;
47808;PMS5003;33573;38.790;-77.084;2024-03-02T06:54:04;4;4;
47808;PMS5003;33573;38.790;-77.084;2024-03-02T06:56:30;5;2;
47808;PMS5003;33573;38.790;-77.084;2024-03-02T06:58:55;4;3;
47808;PMS5003;33573;38.790;-77.084;2024-03-02T07:01:21;2;2;
47808;PMS5003;33573;38.790;-77.084;2024-03-02T07:03:47;2;1;
47808;PMS5003;33573;38.790;-77.084;2024-03-02T07:06:12;2;0;
47808;PMS5003;33573;38.790;-77.084;2024-03-02T07:08:37;1;1;
47808;PMS5003;33573;38.790;-77.084;2024-03-02T07:11:03;1;1;
47808;PMS5003;33573;38.790;-77.084;2024-03-02T07:13:28;1;1;
47808;PMS5003;33573;38.790;-77.084;2024-03-02T07:15:53;1;1;
47808;PMS5003;33573;38.790;-77.084;2024-03-02T07:18:19;1;1;
47808;PMS5003;33573;38.790;-77.084;2024-03-02T07:20:44;3;2;
47808;PMS5003;33573;38.790;-77.084;2024-03-02T07:23:10;5;2;
47808;PMS5003;33573;38.790;-77.084;2024-03-02T07:25:36;3;1;
47808;PMS5003;33573;38.790;-77.084;2024-03-02T07:28:01;5;0;
47808;PMS5003;33573;38.790;-77.084;2024-03-02T07:30:26;2;2;
47808;PMS5003;33573;38.790;-77.084;2024-03-02T07:32:52;2;2;
47808;PMS5003;33573;38.790;-77.084;2024-03-02T07:35:17;1;1;
47808;PMS5003;33573;38.790;-77.084;2024-03-02T07:37:43;2;2;
47808;PMS5003;33573;38.790;-77.084;2024-03-02T07:40:09;2;2;
47808;PMS5003;33573;38.790;-77.084;2024-03-02T07:42:34;2;2;
47808;PMS5003;33573;38.790;-77.084;2024-03-02T07:44:59;1;1;
47808;PMS5003;33573;38.790;-77.084;2024-03-02T07:47:25;2;1;
47808;PMS5003;33573;38.790;-77.084;2024-03-02T07:49:50;2;1;
47808;PMS5003;33573;38.790;-77.084;2024-03-02T07:52:16;1;1;
47808;PMS5003;33573;38.790;-77.084;2024-03-02T07:54:41;3;2;
47808;PMS5003;33573;38.790;-77.084;2024-03-02T07:57:07;2;2;
47808;PMS5003;33573;38.790;-77.084;2024-03-02T07:59:32;1;1;
47808;PMS5003;33573;38.790;-77.084;2024-03-02T08:01:58;2;2;
47808;PMS5003;33573;38.790;-77.084;2024-03-02T08:04:23;0;0;
47808;PMS5003;33573;38.790;-77.084;2024-03-02T08:06:48;1;1;
47808;PMS5003;33573;38.790;-77.084;2024-03-02T08:09:14;1;1;
47808;PMS5003;33573;38.790;-77.084;2024-03-02T08:11:39;2;2;
47808;PMS5003;33573;38.790;-77.084;2024-03-02T08:14:05;2;2;
47808;PMS5003;33573;38.790;-77.084;2024-03-02T08:16:30;1;1;
47808;PMS5003;33573;38.790;-77.084;2024-03-02T08:18:56;1;1;
47808;PMS5003;33573;38.790;-77.084;2024-03-02T08:21:21;1;1;
47808;PMS5003;33573;38.790;-77.084;2024-03-02T08:23:47;1;1;
47808;PMS5003;33573;38.790;-77.084;2024-03-02T08:26:12;0;0;
47808;PMS5003;33573;38.790;-77.084;2024-03-02T08:28:38;1;1;
47808;PMS5003;33573;38.790;-77.084;2024-03-02T08:31:03;1;1;
47808;PMS5003;33573;38.790;-77.084;2024-03-02T08:33:29;2;2;
47808;PMS5003;33573;38.790;-77.084;2024-03-02T08:35:54;1;1;
47808;PMS5003;33573;38.790;-77.084;2024-03-02T08:38:19;2;2;
47808;PMS5003;33573;38.790;-77.084;2024-03-02T08:40:45;1;1;
47808;PMS5003;33573;38.790;-77.084;2024-03-02T08:43:11;2;2;
47808;PMS5003;33573;38.790;-77.084;2024-03-02T08:45:36;0;0;
47808;PMS5003;33573;38.790;-77.084;2024-03-02T08:48:01;2;2;
47808;PMS5003;33573;38.790;-77.084;2024-03-02T08:50:27;1;1;
47808;PMS5003;33573;38.790;-77.084;2024-03-02T08:52:52;1;1;
47808;PMS5003;33573;38.790;-77.084;2024-03-02T08:55:18;0;0;
47808;PMS5003;33573;38.790;-77.084;2024-03-02T08:57:43;2;1;
47808;PMS5003;33573;38.790;-77.084;2024-03-02T09:00:09;2;2;
47808;PMS5003;33573;38.790;-77.084;2024-03-02T09:02:34;1;1;
47808;PMS5003;33573;38.790;-77.084;2024-03-02T09:05:00;1;1;
47808;PMS5003;33573;38.790;-77.084;2024-03-02T09:07:25;2;2;
47808;PMS5003;33573;38.790;-77.084;2024-03-02T09:09:51;1;1;
47808;PMS5003;33573;38.790;-77.084;2024-03-02T09:12:16;2;1;
47808;PMS5003;33573;38.790;-77.084;2024-03-02T09:14:42;2;2;
47808;PMS5003;33573;38.790;-77.084;2024-03-02T09:17:07;2;2;
47808;PMS5003;33573;38.790;-77.084;2024-03-02T09:19:33;2;2;
47808;PMS5003;33573;38.790;-77.084;2024-03-02T09:21:58;2;2;
47808;PMS5003;33573;38.790;-77.084;2024-03-02T09:24:23;1;1;
47808;PMS5003;33573;38.790;-77.084;2024-03-02T09:26:49;1;1;
47808;PMS5003;33573;38.790;-77.084;2024-03-02T09:29:14;1;1;
47808;PMS5003;33573;38.790;-77.084;2024-03-02T09:31:40;1;1;
47808;PMS5003;33573;38.790;-77.084;2024-03-02T09:34:05;1;1;
47808;PMS5003;33573;38.790;-77.084;2024-03-02T09:36:31;2;0;
47808;PMS5003;33573;38.790;-77.084;2024-03-02T09:38:56;1;1;
47808;PMS5003;33573;38.790;-77.084;2024-03-02T09:41:22;1;1;
47808;PMS5003;33573;38.790;-77.084;2024-03-02T09:43:47;1;1;
47808;PMS5003;33573;38.790;-77.084;2024-03-02T09:46:13;3;1;
47808;PMS5003;33573;38.790;-77.084;2024-03-02T09:48:38;2;1;
47808;PMS5003;33573;38.790;-77.084;2024-03-02T09:51:04;1;1;
47808;PMS5003;33573;38.790;-77.084;2024-03-02T09:53:30;0;0;
47808;PMS5003;33573;38.790;-77.084;2024-03-02T09:55:54;1;1;
47808;PMS5003;33573;38.790;-77.084;2024-03-02T09:58:20;1;1;
47808;PMS5003;33573;38.790;-77.084;2024-03-02T10:00:45;3;2;
47808;PMS5003;33573;38.790;-77.084;2024-03-02T10:03:11;2;2;
47808;PMS5003;33573;38.790;-77.084;2024-03-02T10:05:36;0;0;
47808;PMS5003;33573;38.790;-77.084;2024-03-02T10:08:02;2;2;
47808;PMS5003;33573;38.790;-77.084;2024-03-02T10:12:56;1;1;
47808;PMS5003;33573;38.790;-77.084;2024-03-02T10:17:44;3;1;
47808;PMS5003;33573;38.790;-77.084;2024-03-02T10:22:34;1;1;
47808;PMS5003;33573;38.790;-77.084;2024-03-02T10:25:00;1;1;
47808;PMS5003;33573;38.790;-77.084;2024-03-02T10:27:26;0;0;
47808;PMS5003;33573;38.790;-77.084;2024-03-02T10:29:51;3;2;
47808;PMS5003;33573;38.790;-77.084;2024-03-02T10:32:16;0;0;
47808;PMS5003;33573;38.790;-77.084;2024-03-02T10:34:42;1;1;
47808;PMS5003;33573;38.790;-77.084;2024-03-02T10:37:07;1;1;
47808;PMS5003;33573;38.790;-77.084;2024-03-02T10:39:34;2;2;
47808;PMS5003;33573;38.790;-77.084;2024-03-02T10:41:58;1;1;
47808;PMS5003;33573;38.790;-77.084;2024-03-02T10:44:24;1;1;
47808;PMS5003;33573;38.790;-77.084;2024-03-02T10:46:49;1;1;
47808;PMS5003;33573;38.790;-77.084;2024-03-02T10:49:15;1;1;
47808;PMS5003;33573;38.790;-77.084;2024-03-02T10:51:40;1;1;
47808;PMS5003;33573;38.790;-77.084;2024-03-02T10:54:05;2;0;
47808;PMS5003;33573;38.790;-77.084;2024-03-02T10:56:31;0;0;
47808;PMS5003;33573;38.790;-77.084;2024-03-02T10:59:00;1;1;
47808;PMS5003;33573;38.790;-77.084;2024-03-02T11:01:22;1;1;
47808;PMS5003;33573;38.790;-77.084;2024-03-02T11:03:47;0;0;
47808;PMS5003;33573;38.790;-77.084;2024-03-02T11:06:13;1;1;
47808;PMS5003;33573;38.790;-77.084;2024-03-02T11:08:38;1;1;
47808;PMS5003;33573;38.790;-77.084;2024-03-02T11:11:05;0;0;
47808;PMS5003;33573;38.790;-77.084;2024-03-02T11:13:30;1;1;
47808;PMS5003;33573;38.790;-77.084;2024-03-02T11:15:55;0;0;
47808;PMS5003;33573;38.790;-77.084;2024-03-02T11:18:20;0;0;
47808;PMS5003;33573;38.790;-77.084;2024-03-02T11:20:46;1;0;
47808;PMS5003;33573;38.790;-77.084;2024-03-02T11:23:11;1;1;
47808;PMS5003;33573;38.790;-77.084;2024-03-02T11:25:37;1;1;
47808;PMS5003;33573;38.790;-77.084;2024-03-02T11:28:03;0;0;
47808;PMS5003;33573;38.790;-77.084;2024-03-02T11:32:54;0;0;
47808;PMS5003;33573;38.790;-77.084;2024-03-02T11:35:18;1;1;
47808;PMS5003;33573;38.790;-77.084;2024-03-02T11:37:44;0;0;
47808;PMS5003;33573;38.790;-77.084;2024-03-02T11:40:09;1;1;
47808;PMS5003;33573;38.790;-77.084;2024-03-02T11:42:35;1;1;
47808;PMS5003;33573;38.790;-77.084;2024-03-02T11:45:00;0;0;
47808;PMS5003;33573;38.790;-77.084;2024-03-02T11:47:26;1;1;
47808;PMS5003;33573;38.790;-77.084;2024-03-02T11:49:51;0;0;
47808;PMS5003;33573;38.790;-77.084;2024-03-02T11:52:17;0;0;
47808;PMS5003;33573;38.790;-77.084;2024-03-02T11:54:42;0;0;
47808;PMS5003;33573;38.790;-77.084;2024-03-02T11:57:07;1;1;
47808;PMS5003;33573;38.790;-77.084;2024-03-02T11:59:33;0;0;
47808;PMS5003;33573;38.790;-77.084;2024-03-02T12:01:58;1;1;
47808;PMS5003;33573;38.790;-77.084;2024-03-02T12:04:24;0;0;
47808;PMS5003;33573;38.790;-77.084;2024-03-02T12:06:53;0;0;
47808;PMS5003;33573;38.790;-77.084;2024-03-02T12:09:15;1;1;
47808;PMS5003;33573;38.790;-77.084;2024-03-02T12:11:40;0;0;
47808;PMS5003;33573;38.790;-77.084;2024-03-02T12:14:10;0;0;
47808;PMS5003;33573;38.790;-77.084;2024-03-02T12:16:31;1;1;
47808;PMS5003;33573;38.790;-77.084;2024-03-02T12:18:56;0;0;
47808;PMS5003;33573;38.790;-77.084;2024-03-02T12:21:22;0;0;
47808;PMS5003;33573;38.790;-77.084;2024-03-02T12:23:47;0;0;
47808;PMS5003;33573;38.790;-77.084;2024-03-02T12:26:13;1;0;
47808;PMS5003;33573;38.790;-77.084;2024-03-02T12:28:38;1;1;
47808;PMS5003;33573;38.790;-77.084;2024-03-02T12:31:04;0;0;
47808;PMS5003;33573;38.790;-77.084;2024-03-02T12:33:29;0;0;
47808;PMS5003;33573;38.790;-77.084;2024-03-02T12:35:55;1;1;
47808;PMS5003;33573;38.790;-77.084;2024-03-02T12:38:20;0;0;
47808;PMS5003;33573;38.790;-77.084;2024-03-02T12:40:47;0;0;
47808;PMS5003;33573;38.790;-77.084;2024-03-02T12:43:11;0;0;
47808;PMS5003;33573;38.790;-77.084;2024-03-02T12:45:37;0;0;
47808;PMS5003;33573;38.790;-77.084;2024-03-02T12:48:02;0;0;
47808;PMS5003;33573;38.790;-77.084;2024-03-02T12:50:27;0;0;
47808;PMS5003;33573;38.790;-77.084;2024-03-02T12:52:53;0;0;
47808;PMS5003;33573;38.790;-77.084;2024-03-02T12:55:19;0;0;
47808;PMS5003;33573;38.790;-77.084;2024-03-02T12:57:44;0;0;
47808;PMS5003;33573;38.790;-77.084;2024-03-02T13:00:09;2;1;
47808;PMS5003;33573;38.790;-77.084;2024-03-02T13:02:35;2;1;
47808;PMS5003;33573;38.790;-77.084;2024-03-02T13:05:00;0;0;
47808;PMS5003;33573;38.790;-77.084;2024-03-02T13:07:26;0;0;
47808;PMS5003;33573;38.790;-77.084;2024-03-02T13:09:51;0;0;
47808;PMS5003;33573;38.790;-77.084;2024-03-02T13:12:17;1;1;
47808;PMS5003;33573;38.790;-77.084;2024-03-02T13:14:42;1;1;
47808;PMS5003;33573;38.790;-77.084;2024-03-02T13:17:08;0;0;
47808;PMS5003;33573;38.790;-77.084;2024-03-02T13:19:33;0;0;
47808;PMS5003;33573;38.790;-77.084;2024-03-02T13:21:58;0;0;
47808;PMS5003;33573;38.790;-77.084;2024-03-02T13:24:24;1;0;
47808;PMS5003;33573;38.790;-77.084;2024-03-02T13:26:49;0;0;
47808;PMS5003;33573;38.790;-77.084;2024-03-02T13:29:15;0;0;
47808;PMS5003;33573;38.790;-77.084;2024-03-02T13:31:40;0;0;
47808;PMS5003;33573;38.790;-77.084;2024-03-02T13:34:05;0;0;
47808;PMS5003;33573;38.790;-77.084;2024-03-02T13:36:31;0;0;
47808;PMS5003;33573;38.790;-77.084;2024-03-02T13:38:56;0;0;
47808;PMS5003;33573;38.790;-77.084;2024-03-02T13:41:22;0;0;
47808;PMS5003;33573;38.790;-77.084;2024-03-02T13:43:47;0;0;
47808;PMS5003;33573;38.790;-77.084;2024-03-02T13:46:13;0;0;
47808;PMS5003;33573;38.790;-77.084;2024-03-02T13:48:38;0;0;
47808;PMS5003;33573;38.790;-77.084;2024-03-02T13:51:04;2;0;
47808;PMS5003;33573;38.790;-77.084;2024-03-02T13:53:29;0;0;
47808;PMS5003;33573;38.790;-77.084;2024-03-02T13:55:55;0;0;
47808;PMS5003;33573;38.790;-77.084;2024-03-02T13:58:20;0;0;
47808;PMS5003;33573;38.790;-77.084;2024-03-02T14:00:46;0;0;
47808;PMS5003;33573;38.790;-77.084;2024-03-02T14:03:11;0;0;
47808;PMS5003;33573;38.790;-77.084;2024-03-02T14:05:37;0;0;
47808;PMS5003;33573;38.790;-77.084;2024-03-02T14:08:02;1;0;
47808;PMS5003;33573;38.790;-77.084;2024-03-02T14:10:27;1;1;
47808;PMS5003;33573;38.790;-77.084;2024-03-02T14:12:53;0;0;
47808;PMS5003;33573;38.790;-77.084;2024-03-02T14:15:18;0;0;
47808;PMS5003;33573;38.790;-77.084;2024-03-02T14:17:44;0;0;
47808;PMS5003;33573;38.790;-77.084;2024-03-02T14:20:09;0;0;
47808;PMS5003;33573;38.790;-77.084;2024-03-02T14:22:35;0;0;
47808;PMS5003;33573;38.790;-77.084;2024-03-02T14:25:00;0;0;
47808;PMS5003;33573;38.790;-77.084;2024-03-02T14:27:25;0;0;
47808;PMS5003;33573;38.790;-77.084;2024-03-02T14:29:51;0;0;
47808;PMS5003;33573;38.790;-77.084;2024-03-02T14:32:16;0;0;
47808;PMS5003;33573;38.790;-77.084;2024-03-02T14:34:42;0;0;
47808;PMS5003;33573;38.790;-77.084;2024-03-02T14:37:07;0;0;
47808;PMS5003;33573;38.790;-77.084;2024-03-02T14:39:33;0;0;
47808;PMS5003;33573;38.790;-77.084;2024-03-02T14:41:58;0;0;
47808;PMS5003;33573;38.790;-77.084;2024-03-02T14:44:24;0;0;
47808;PMS5003;33573;38.790;-77.084;2024-03-02T14:46:49;0;0;
47808;PMS5003;33573;38.790;-77.084;2024-03-02T14:49:15;0;0;
47808;PMS5003;33573;38.790;-77.084;2024-03-02T14:51:40;0;0;
47808;PMS5003;33573;38.790;-77.084;2024-03-02T14:54:05;0;0;
47808;PMS5003;33573;38.790;-77.084;2024-03-02T14:56:31;0;0;
47808;PMS5003;33573;38.790;-77.084;2024-03-02T14:58:56;0;0;
47808;PMS5003;33573;38.790;-77.084;2024-03-02T15:01:22;1;1;
47808;PMS5003;33573;38.790;-77.084;2024-03-02T15:03:47;0;0;
47808;PMS5003;33573;38.790;-77.084;2024-03-02T15:06:13;0;0;
47808;PMS5003;33573;38.790;-77.084;2024-03-02T15:08:38;0;0;
47808;PMS5003;33573;38.790;-77.084;2024-03-02T15:11:04;1;1;
47808;PMS5003;33573;38.790;-77.084;2024-03-02T15:13:29;0;0;
47808;PMS5003;33573;38.790;-77.084;2024-03-02T15:15:55;0;0;
47808;PMS5003;33573;38.790;-77.084;2024-03-02T15:18:20;0;0;
47808;PMS5003;33573;38.790;-77.084;2024-03-02T15:20:45;0;0;
47808;PMS5003;33573;38.790;-77.084;2024-03-02T15:23:11;0;0;
47808;PMS5003;33573;38.790;-77.084;2024-03-02T15:25:36;1;0;
47808;PMS5003;33573;38.790;-77.084;2024-03-02T15:28:02;0;0;
47808;PMS5003;33573;38.790;-77.084;2024-03-02T15:30:27;0;0;
47808;PMS5003;33573;38.790;-77.084;2024-03-02T15:32:53;0;0;
47808;PMS5003;33573;38.790;-77.084;2024-03-02T15:35:18;0;0;
47808;PMS5003;33573;38.790;-77.084;2024-03-02T15:37:44;0;0;
47808;PMS5003;33573;38.790;-77.084;2024-03-02T15:40:09;0;0;
47808;PMS5003;33573;38.790;-77.084;2024-03-02T15:42:35;0;0;
47808;PMS5003;33573;38.790;-77.084;2024-03-02T15:45:00;0;0;
47808;PMS5003;33573;38.790;-77.084;2024-03-02T15:47:26;0;0;
47808;PMS5003;33573;38.790;-77.084;2024-03-02T15:49:51;0;0;
47808;PMS5003;33573;38.790;-77.084;2024-03-02T15:52:16;0;0;
47808;PMS5003;33573;38.790;-77.084;2024-03-02T15:54:42;0;0;
47808;PMS5003;33573;38.790;-77.084;2024-03-02T15:57:07;0;0;
47808;PMS5003;33573;38.790;-77.084;2024-03-02T15:59:33;0;0;
47808;PMS5003;33573;38.790;-77.084;2024-03-02T16:01:58;0;0;
47808;PMS5003;33573;38.790;-77.084;2024-03-02T16:04:24;0;0;
47808;PMS5003;33573;38.790;-77.084;2024-03-02T16:06:49;0;0;
47808;PMS5003;33573;38.790;-77.084;2024-03-02T16:09:15;0;0;